Hebron, Ohio
Current Conditions -  °F | °C
As of 7:54 PM on Saturday 25 Oct 2014 (Local Time) from KVTA Reporting Station
Clear Clear  
Wind Chill: 62°   Ceiling: Unl
Heat Index: 62°   Visibility: 10mi
Dew Point: 53°   Wind: 8mph
Humidity: 72%   Direction: 240°WSW
Pressure: 29.82"   Gusts: NA
Location:  39.96°N, 82.49°W
Report Text: KVTA 252354Z AUTO 24007KT 10SM CLR 17/12 A2982 RMK AO2 SLP098 T01670117 10222 20167 56005
Loading
Personal Weather Stations






























Interactive Weather Map
Tropical Storm Tracking
New forecast layout! Learn more

10-Day Weather Forecast

Advertisements
Track Severe Weather on mobile